createdAt,value
2022-12-31T00:00:30.406Z,985.38
2022-12-31T00:01:30.335Z,985.24
2022-12-31T00:02:30.406Z,985.17
2022-12-31T00:03:30.382Z,985.15
2022-12-31T00:04:30.277Z,985.26
2022-12-31T00:05:30.279Z,985.19
2022-12-31T00:06:30.268Z,985.23
2022-12-31T00:07:30.253Z,985.23
2022-12-31T00:08:30.245Z,985.30
2022-12-31T00:09:30.226Z,985.26
2022-12-31T00:10:30.234Z,985.27
2022-12-31T00:11:30.223Z,985.28
2022-12-31T00:12:30.209Z,985.19
2022-12-31T00:13:30.205Z,985.15
2022-12-31T00:14:30.171Z,985.22
2022-12-31T00:15:30.162Z,985.21
2022-12-31T00:16:30.175Z,985.21
2022-12-31T00:17:30.131Z,985.13
2022-12-31T00:18:30.116Z,985.17
2022-12-31T00:19:30.125Z,985.26
2022-12-31T00:20:30.108Z,985.16
2022-12-31T00:21:30.103Z,985.17
2022-12-31T00:22:30.084Z,985.19
2022-12-31T00:23:30.069Z,985.16
2022-12-31T00:24:30.047Z,985.16
2022-12-31T00:25:30.055Z,985.19
2022-12-31T00:26:30.055Z,985.18
2022-12-31T00:27:30.011Z,985.20
2022-12-31T00:28:30.022Z,985.19
2022-12-31T00:29:29.997Z,985.20
2022-12-31T00:30:30.072Z,985.14
2022-12-31T00:31:29.982Z,985.16
2022-12-31T00:32:29.960Z,985.13
2022-12-31T00:33:29.955Z,985.11
2022-12-31T00:34:29.943Z,985.11
2022-12-31T00:35:29.943Z,985.06
2022-12-31T00:36:29.956Z,985.04
2022-12-31T00:37:29.897Z,985.03
2022-12-31T00:38:29.908Z,984.96
2022-12-31T00:39:29.888Z,984.92
2022-12-31T00:40:29.873Z,984.96
2022-12-31T00:41:29.873Z,984.95
2022-12-31T00:42:29.839Z,984.96
2022-12-31T00:43:29.837Z,984.97
2022-12-31T00:44:29.823Z,985.00
2022-12-31T00:45:29.805Z,985.00
2022-12-31T00:46:29.882Z,985.02
2022-12-31T00:47:29.814Z,984.95
2022-12-31T00:48:29.785Z,984.98
2022-12-31T00:49:29.774Z,984.94
2022-12-31T00:50:29.751Z,984.92
2022-12-31T00:51:29.749Z,984.99
2022-12-31T00:52:29.748Z,985.01
2022-12-31T00:53:29.708Z,985.07
2022-12-31T00:54:29.705Z,985.07
2022-12-31T00:55:29.691Z,984.95
2022-12-31T00:56:29.672Z,984.98
2022-12-31T00:57:29.700Z,984.95
2022-12-31T00:58:29.681Z,984.98
2022-12-31T00:59:29.645Z,984.98
2022-12-31T01:00:29.634Z,984.93
2022-12-31T01:01:29.798Z,984.88
2022-12-31T01:02:29.899Z,984.93
2022-12-31T01:03:29.650Z,984.92
2022-12-31T01:04:29.579Z,984.84
2022-12-31T01:05:29.571Z,984.83
2022-12-31T01:06:29.586Z,984.82
2022-12-31T01:07:29.545Z,984.80
2022-12-31T01:08:29.534Z,984.76
2022-12-31T01:09:29.547Z,984.72
2022-12-31T01:10:29.512Z,984.75
2022-12-31T01:11:29.665Z,984.69
2022-12-31T01:12:29.494Z,984.72
2022-12-31T01:13:29.475Z,984.71
2022-12-31T01:14:29.466Z,984.70
2022-12-31T01:15:29.502Z,984.72
2022-12-31T01:16:29.449Z,984.67
2022-12-31T01:17:29.423Z,984.69
2022-12-31T01:18:29.415Z,984.59
2022-12-31T01:19:29.418Z,984.58
2022-12-31T01:20:29.407Z,984.62
2022-12-31T01:21:29.393Z,984.65
2022-12-31T01:22:29.381Z,984.68
2022-12-31T01:23:29.351Z,984.65
2022-12-31T01:24:29.354Z,984.70
2022-12-31T01:25:29.352Z,984.69
2022-12-31T01:26:29.323Z,984.69
2022-12-31T01:27:29.325Z,984.62
2022-12-31T01:28:29.297Z,984.67
2022-12-31T01:29:29.301Z,984.68
2022-12-31T01:30:29.282Z,984.65
2022-12-31T01:31:29.330Z,984.61
2022-12-31T01:32:29.271Z,984.64
2022-12-31T01:33:29.253Z,984.68
2022-12-31T01:34:29.232Z,984.69
2022-12-31T01:35:29.229Z,984.60
2022-12-31T01:36:29.214Z,984.60
2022-12-31T01:37:29.195Z,984.63
2022-12-31T01:38:29.185Z,984.67
2022-12-31T01:39:29.184Z,984.63
2022-12-31T01:40:29.165Z,984.61
2022-12-31T01:41:29.155Z,984.64
2022-12-31T01:42:29.140Z,984.70
2022-12-31T01:43:29.123Z,984.63
2022-12-31T01:44:29.115Z,984.64
2022-12-31T01:45:29.159Z,984.64
2022-12-31T01:46:29.163Z,984.56
2022-12-31T01:47:29.092Z,984.58
2022-12-31T01:48:29.068Z,984.48
2022-12-31T01:49:29.052Z,984.53
2022-12-31T01:50:29.040Z,984.48
2022-12-31T01:51:29.029Z,984.49
2022-12-31T01:52:29.037Z,984.47
2022-12-31T01:53:29.021Z,984.47
2022-12-31T01:54:29.016Z,984.52
2022-12-31T01:55:28.981Z,984.57
2022-12-31T01:56:28.983Z,984.63
2022-12-31T01:57:28.967Z,984.73
2022-12-31T01:58:28.953Z,984.71
2022-12-31T01:59:28.941Z,984.72
2022-12-31T02:00:28.916Z,984.67
2022-12-31T02:01:29.103Z,984.72
2022-12-31T02:02:29.023Z,984.72
2022-12-31T02:03:28.941Z,984.66
2022-12-31T02:04:28.884Z,984.83
2022-12-31T02:05:28.862Z,984.78
2022-12-31T02:06:28.859Z,984.85
2022-12-31T02:07:28.847Z,984.71
2022-12-31T02:08:28.828Z,984.65
2022-12-31T02:09:28.817Z,984.78
2022-12-31T02:10:28.803Z,984.80
2022-12-31T02:11:28.795Z,984.92
2022-12-31T02:12:28.806Z,984.80
2022-12-31T02:13:28.781Z,984.79
2022-12-31T02:14:28.752Z,984.84
2022-12-31T02:15:28.747Z,984.79
2022-12-31T02:16:28.740Z,984.81
2022-12-31T02:17:28.739Z,984.74
2022-12-31T02:18:28.709Z,984.78
2022-12-31T02:19:28.700Z,984.81
2022-12-31T02:20:28.685Z,984.81
2022-12-31T02:21:28.684Z,984.78
2022-12-31T02:22:28.658Z,984.80
2022-12-31T02:23:28.660Z,984.76
2022-12-31T02:24:28.644Z,984.72
2022-12-31T02:25:28.630Z,984.81
2022-12-31T02:26:28.613Z,984.67
2022-12-31T02:27:28.616Z,984.69
2022-12-31T02:28:28.589Z,984.70
2022-12-31T02:29:28.597Z,984.68
2022-12-31T02:30:28.563Z,984.62
2022-12-31T02:31:28.611Z,984.74
2022-12-31T02:32:28.549Z,984.67
2022-12-31T02:33:28.534Z,984.70
2022-12-31T02:34:28.547Z,984.68
2022-12-31T02:35:28.519Z,984.71
2022-12-31T02:36:28.495Z,984.62
2022-12-31T02:37:28.504Z,984.63
2022-12-31T02:38:28.468Z,984.71
2022-12-31T02:39:28.465Z,984.78
2022-12-31T02:40:28.460Z,984.70
2022-12-31T02:41:28.444Z,984.67
2022-12-31T02:42:28.435Z,984.83
2022-12-31T02:43:28.431Z,984.68
2022-12-31T02:44:28.431Z,984.71
2022-12-31T02:45:28.430Z,984.82
2022-12-31T02:46:28.437Z,984.71
2022-12-31T02:47:28.402Z,984.81
2022-12-31T02:48:28.356Z,984.81
2022-12-31T02:49:28.371Z,984.68
2022-12-31T02:50:28.356Z,984.86
2022-12-31T02:51:28.337Z,984.65
2022-12-31T02:52:28.344Z,984.60
2022-12-31T02:53:28.318Z,984.72
2022-12-31T02:54:28.297Z,984.75
2022-12-31T02:55:28.289Z,984.84
2022-12-31T02:56:28.297Z,984.84
2022-12-31T02:57:28.261Z,984.82
2022-12-31T02:58:28.272Z,984.89
2022-12-31T02:59:28.247Z,984.86
2022-12-31T03:00:28.249Z,984.86
2022-12-31T03:01:28.326Z,984.83
2022-12-31T03:02:28.326Z,984.85
2022-12-31T03:03:28.203Z,984.94
2022-12-31T03:04:28.179Z,984.96
2022-12-31T03:05:28.180Z,984.93
2022-12-31T03:06:28.164Z,984.82
2022-12-31T03:07:28.172Z,984.86
2022-12-31T03:08:28.144Z,984.80
2022-12-31T03:09:28.128Z,985.00
2022-12-31T03:10:28.120Z,984.97
2022-12-31T03:11:28.093Z,985.00
2022-12-31T03:12:28.093Z,985.06
2022-12-31T03:13:28.088Z,985.15
2022-12-31T03:14:28.059Z,985.08
2022-12-31T03:15:28.063Z,985.03
2022-12-31T03:16:28.102Z,985.01
2022-12-31T03:17:28.031Z,985.14
2022-12-31T03:18:28.031Z,985.12
2022-12-31T03:19:28.011Z,985.11
2022-12-31T03:20:28.009Z,985.11
2022-12-31T03:21:27.989Z,985.16
2022-12-31T03:22:27.997Z,984.99
2022-12-31T03:23:27.965Z,985.13
2022-12-31T03:24:27.965Z,985.23
2022-12-31T03:25:27.944Z,985.19
2022-12-31T03:26:27.969Z,985.10
2022-12-31T03:27:27.912Z,985.15
2022-12-31T03:28:27.911Z,985.21
2022-12-31T03:29:27.895Z,985.03
2022-12-31T03:30:27.913Z,985.11
2022-12-31T03:31:27.914Z,985.10
2022-12-31T03:32:27.884Z,985.14
2022-12-31T03:33:27.861Z,985.04
2022-12-31T03:34:27.835Z,985.06
2022-12-31T03:35:27.827Z,985.03
2022-12-31T03:36:27.827Z,985.15
2022-12-31T03:37:27.807Z,985.20
2022-12-31T03:38:27.795Z,985.25
2022-12-31T03:39:27.791Z,985.18
2022-12-31T03:40:27.775Z,985.23
2022-12-31T03:41:27.791Z,985.26
2022-12-31T03:42:27.751Z,985.20
2022-12-31T03:43:27.754Z,985.35
2022-12-31T03:44:27.723Z,985.18
2022-12-31T03:45:27.786Z,985.28
2022-12-31T03:46:27.700Z,985.04
2022-12-31T03:47:27.702Z,985.28
2022-12-31T03:48:27.685Z,985.19
2022-12-31T03:49:27.704Z,985.32
2022-12-31T03:50:27.659Z,985.30
2022-12-31T03:51:27.649Z,985.47
2022-12-31T03:52:27.640Z,985.33
2022-12-31T03:53:27.648Z,985.35
2022-12-31T03:54:27.612Z,985.09
2022-12-31T03:55:27.606Z,985.33
2022-12-31T03:56:27.587Z,985.34
2022-12-31T03:57:27.584Z,985.44
2022-12-31T03:58:27.570Z,985.45
2022-12-31T03:59:27.555Z,985.33
2022-12-31T04:00:27.543Z,985.41
2022-12-31T04:01:27.651Z,985.40
2022-12-31T04:02:29.190Z,985.36
2022-12-31T04:03:27.583Z,985.14
2022-12-31T04:04:27.502Z,985.45
2022-12-31T04:05:27.499Z,985.38
2022-12-31T04:06:27.472Z,985.39
2022-12-31T04:07:27.462Z,985.35
2022-12-31T04:08:27.446Z,985.29
2022-12-31T04:09:27.452Z,985.34
2022-12-31T04:10:27.439Z,985.24
2022-12-31T04:11:27.425Z,985.25
2022-12-31T04:12:27.402Z,985.25
2022-12-31T04:13:27.417Z,985.25
2022-12-31T04:14:27.416Z,985.14
2022-12-31T04:15:27.365Z,985.26
2022-12-31T04:16:27.437Z,985.27
2022-12-31T04:17:27.343Z,985.44
2022-12-31T04:18:27.342Z,985.23
2022-12-31T04:19:27.324Z,985.23
2022-12-31T04:20:27.332Z,985.27
2022-12-31T04:21:33.076Z,985.19
2022-12-31T04:22:27.299Z,985.15
2022-12-31T04:23:27.287Z,985.25
2022-12-31T04:24:27.282Z,985.30
2022-12-31T04:25:27.269Z,985.36
2022-12-31T04:26:27.255Z,985.16
2022-12-31T04:27:27.229Z,985.06
2022-12-31T04:28:27.217Z,985.18
2022-12-31T04:29:27.247Z,985.16
2022-12-31T04:30:27.201Z,985.14
2022-12-31T04:31:27.235Z,985.17
2022-12-31T04:32:27.185Z,985.33
2022-12-31T04:33:27.158Z,985.12
2022-12-31T04:34:27.162Z,985.30
2022-12-31T04:35:27.141Z,985.36
2022-12-31T04:36:27.145Z,985.33
2022-12-31T04:37:27.124Z,985.25
2022-12-31T04:38:27.100Z,985.49
2022-12-31T04:39:27.120Z,985.42
2022-12-31T04:40:27.097Z,985.42
2022-12-31T04:41:27.150Z,985.33
2022-12-31T04:42:27.079Z,985.30
2022-12-31T04:43:27.049Z,985.38
2022-12-31T04:44:27.041Z,985.34
2022-12-31T04:45:27.021Z,985.27
2022-12-31T04:46:27.013Z,985.42
2022-12-31T04:47:27.000Z,985.46
2022-12-31T04:48:27.053Z,985.49
2022-12-31T04:49:26.972Z,985.48
2022-12-31T04:50:26.976Z,985.46
2022-12-31T04:51:26.965Z,985.37
2022-12-31T04:52:26.955Z,985.68
2022-12-31T04:53:26.943Z,985.60
2022-12-31T04:54:26.915Z,985.59
2022-12-31T04:55:26.922Z,985.42
2022-12-31T04:56:26.920Z,985.48
2022-12-31T04:57:26.893Z,985.56
2022-12-31T04:58:26.874Z,985.50
2022-12-31T04:59:26.872Z,985.53
2022-12-31T05:00:26.848Z,985.53
2022-12-31T05:01:26.959Z,985.49
2022-12-31T05:02:27.048Z,985.64
2022-12-31T05:03:26.870Z,985.49
2022-12-31T05:04:26.812Z,985.56
2022-12-31T05:05:26.828Z,985.78
2022-12-31T05:06:26.787Z,985.58
2022-12-31T05:07:26.783Z,985.61
2022-12-31T05:08:26.759Z,985.62
2022-12-31T05:09:26.773Z,985.82
2022-12-31T05:10:26.741Z,985.74
2022-12-31T05:11:26.734Z,985.87
2022-12-31T05:12:26.732Z,985.75
2022-12-31T05:13:32.732Z,985.99
2022-12-31T05:14:26.782Z,985.66
2022-12-31T05:15:26.703Z,985.74
2022-12-31T05:16:26.724Z,985.69
2022-12-31T05:17:26.662Z,985.75
2022-12-31T05:18:26.660Z,985.83
2022-12-31T05:19:26.654Z,985.72
2022-12-31T05:20:26.624Z,985.63
2022-12-31T05:21:26.625Z,985.81
2022-12-31T05:22:26.608Z,985.77
2022-12-31T05:23:26.588Z,985.64
2022-12-31T05:24:26.584Z,985.73
2022-12-31T05:25:26.579Z,985.86
2022-12-31T05:26:26.560Z,985.67
2022-12-31T05:27:26.541Z,985.63
2022-12-31T05:28:26.550Z,985.74
2022-12-31T05:29:26.539Z,985.69
2022-12-31T05:30:26.724Z,985.78
2022-12-31T05:31:26.540Z,985.61
2022-12-31T05:32:26.491Z,985.74
2022-12-31T05:33:26.472Z,985.76
2022-12-31T05:34:26.462Z,985.88
2022-12-31T05:35:26.463Z,985.68
2022-12-31T05:36:26.446Z,985.86
2022-12-31T05:37:26.451Z,985.72
2022-12-31T05:38:26.416Z,985.68
2022-12-31T05:39:26.408Z,985.85
2022-12-31T05:40:26.394Z,985.87
2022-12-31T05:41:26.415Z,985.71
2022-12-31T05:42:26.367Z,985.72
2022-12-31T05:43:26.363Z,985.66
2022-12-31T05:44:26.347Z,985.70
2022-12-31T05:45:30.774Z,985.73
2022-12-31T05:46:26.365Z,985.78
2022-12-31T05:47:26.344Z,985.77
2022-12-31T05:48:26.300Z,985.83
2022-12-31T05:49:26.289Z,985.91
2022-12-31T05:50:26.279Z,985.69
2022-12-31T05:51:26.269Z,985.85
2022-12-31T05:52:26.273Z,985.88
2022-12-31T05:53:26.330Z,985.82
2022-12-31T05:54:26.275Z,985.88
2022-12-31T05:55:26.256Z,985.85
2022-12-31T05:56:26.257Z,985.82
2022-12-31T05:57:26.249Z,986.00
2022-12-31T05:58:26.196Z,985.73
2022-12-31T05:59:26.174Z,985.78
2022-12-31T06:00:26.182Z,986.01
2022-12-31T06:01:26.186Z,985.79
2022-12-31T06:02:26.245Z,986.02
2022-12-31T06:03:26.182Z,985.97
2022-12-31T06:04:26.120Z,985.96
2022-12-31T06:05:26.793Z,986.04
2022-12-31T06:06:26.136Z,985.87
2022-12-31T06:07:26.157Z,986.10
2022-12-31T06:08:26.074Z,986.13
2022-12-31T06:09:26.062Z,986.01
2022-12-31T06:10:26.053Z,985.96
2022-12-31T06:11:26.042Z,985.94
2022-12-31T06:12:26.027Z,986.10
2022-12-31T06:13:26.029Z,986.26
2022-12-31T06:14:26.007Z,986.18
2022-12-31T06:15:26.009Z,986.23
2022-12-31T06:16:25.989Z,986.07
2022-12-31T06:17:25.982Z,986.19
2022-12-31T06:18:25.989Z,986.20
2022-12-31T06:19:25.953Z,986.20
2022-12-31T06:20:25.970Z,986.23
2022-12-31T06:21:25.949Z,986.18
2022-12-31T06:22:25.913Z,986.31
2022-12-31T06:23:25.904Z,986.35
2022-12-31T06:24:25.898Z,986.29
2022-12-31T06:25:25.886Z,986.37
2022-12-31T06:26:25.874Z,986.33
2022-12-31T06:27:25.853Z,986.46
2022-12-31T06:28:25.842Z,986.38
2022-12-31T06:29:25.832Z,986.25
2022-12-31T06:30:25.840Z,986.52
2022-12-31T06:31:25.861Z,986.34
2022-12-31T06:32:25.802Z,986.37
2022-12-31T06:33:25.794Z,986.36
2022-12-31T06:34:25.781Z,986.51
2022-12-31T06:35:25.769Z,986.61
2022-12-31T06:36:25.755Z,986.45
2022-12-31T06:37:25.748Z,986.56
2022-12-31T06:38:25.730Z,986.51
2022-12-31T06:39:25.708Z,986.46
2022-12-31T06:40:25.713Z,986.56
2022-12-31T06:41:25.696Z,986.58
2022-12-31T06:42:25.682Z,986.54
2022-12-31T06:43:25.679Z,986.61
2022-12-31T06:44:25.675Z,986.48
2022-12-31T06:45:25.648Z,986.60
2022-12-31T06:46:25.668Z,986.53
2022-12-31T06:47:25.636Z,986.53
2022-12-31T06:48:25.624Z,986.42
2022-12-31T06:49:25.628Z,986.64
2022-12-31T06:50:25.608Z,986.60
2022-12-31T06:51:25.591Z,986.66
2022-12-31T06:52:25.571Z,986.76
2022-12-31T06:53:25.560Z,986.64
2022-12-31T06:54:25.551Z,986.66
2022-12-31T06:55:25.558Z,986.73
2022-12-31T06:56:32.997Z,986.76
2022-12-31T06:57:25.519Z,986.62
2022-12-31T06:58:25.517Z,986.67
2022-12-31T06:59:25.513Z,986.81
2022-12-31T07:00:25.503Z,986.76
2022-12-31T07:01:25.560Z,986.74
2022-12-31T07:02:25.660Z,986.79
2022-12-31T07:03:25.548Z,986.84
2022-12-31T07:04:25.441Z,986.83
2022-12-31T07:05:25.445Z,986.90
2022-12-31T07:06:25.415Z,986.91
2022-12-31T07:07:25.406Z,986.83
2022-12-31T07:08:25.399Z,986.81
2022-12-31T07:09:25.384Z,986.89
2022-12-31T07:10:29.403Z,987.01
2022-12-31T07:11:25.377Z,986.92
2022-12-31T07:12:25.343Z,987.01
2022-12-31T07:13:25.343Z,986.81
2022-12-31T07:14:25.319Z,986.97
2022-12-31T07:15:25.306Z,986.83
2022-12-31T07:16:25.442Z,986.81
2022-12-31T07:17:25.287Z,986.86
2022-12-31T07:18:25.277Z,986.80
2022-12-31T07:19:25.275Z,986.94
2022-12-31T07:20:25.255Z,987.04
2022-12-31T07:21:25.266Z,986.89
2022-12-31T07:22:25.238Z,986.82
2022-12-31T07:23:25.231Z,986.82
2022-12-31T07:24:25.231Z,986.97
2022-12-31T07:25:25.196Z,987.01
2022-12-31T07:26:25.196Z,986.99
2022-12-31T07:27:25.181Z,986.90
2022-12-31T07:28:25.161Z,987.14
2022-12-31T07:29:25.166Z,987.11
2022-12-31T07:30:25.140Z,987.07
2022-12-31T07:31:25.203Z,987.11
2022-12-31T07:32:25.148Z,986.95
2022-12-31T07:33:25.107Z,987.28
2022-12-31T07:34:25.105Z,986.93
2022-12-31T07:35:29.745Z,987.12
2022-12-31T07:36:25.077Z,986.85
2022-12-31T07:37:25.057Z,986.96
2022-12-31T07:38:25.052Z,986.91
2022-12-31T07:39:25.040Z,987.18
2022-12-31T07:40:25.050Z,986.92
2022-12-31T07:41:25.039Z,986.92
2022-12-31T07:42:25.019Z,986.93
2022-12-31T07:43:24.997Z,986.92
2022-12-31T07:44:24.984Z,987.02
2022-12-31T07:45:24.970Z,986.92
2022-12-31T07:46:25.009Z,987.00
2022-12-31T07:47:24.965Z,986.91
2022-12-31T07:48:24.936Z,986.97
2022-12-31T07:49:24.943Z,987.11
2022-12-31T07:50:24.925Z,986.99
2022-12-31T07:51:24.900Z,987.07
2022-12-31T07:52:24.921Z,987.02
2022-12-31T07:53:24.887Z,986.99
2022-12-31T07:54:24.893Z,986.98
2022-12-31T07:55:24.860Z,987.03
2022-12-31T07:56:24.860Z,987.05
2022-12-31T07:57:24.848Z,987.27
2022-12-31T07:58:24.837Z,987.22
2022-12-31T07:59:24.904Z,987.21
2022-12-31T08:00:24.805Z,987.13
2022-12-31T08:01:24.891Z,987.07
2022-12-31T08:02:24.880Z,987.21
2022-12-31T08:03:24.784Z,987.04
2022-12-31T08:04:24.764Z,987.17
2022-12-31T08:05:24.766Z,987.19
2022-12-31T08:06:24.748Z,987.08
2022-12-31T08:07:24.733Z,987.24
2022-12-31T08:08:24.801Z,987.13
2022-12-31T08:09:24.706Z,987.27
2022-12-31T08:10:24.697Z,987.39
2022-12-31T08:11:24.683Z,987.40
2022-12-31T08:12:24.675Z,987.22
2022-12-31T08:13:24.683Z,987.30
2022-12-31T08:14:24.677Z,987.34
2022-12-31T08:15:30.188Z,987.25
2022-12-31T08:16:25.497Z,987.37
2022-12-31T08:17:24.688Z,987.38
2022-12-31T08:18:24.692Z,987.32
2022-12-31T08:19:24.615Z,987.33
2022-12-31T08:20:24.678Z,987.35
2022-12-31T08:21:28.219Z,987.30
2022-12-31T08:22:24.558Z,987.37
2022-12-31T08:23:24.734Z,987.34
2022-12-31T08:24:24.538Z,987.41
2022-12-31T08:25:24.527Z,987.38
2022-12-31T08:26:24.514Z,987.42
2022-12-31T08:27:24.516Z,987.41
2022-12-31T08:28:24.511Z,987.24
2022-12-31T08:29:24.512Z,987.37
2022-12-31T08:30:24.568Z,987.49
2022-12-31T08:31:24.493Z,987.44
2022-12-31T08:32:24.458Z,987.35
2022-12-31T08:33:24.434Z,987.46
2022-12-31T08:34:24.446Z,987.51
2022-12-31T08:35:24.417Z,987.45
2022-12-31T08:36:24.416Z,987.57
2022-12-31T08:37:24.397Z,987.58
2022-12-31T08:38:24.390Z,987.54
2022-12-31T08:39:24.376Z,987.65
2022-12-31T08:40:24.439Z,987.62
2022-12-31T08:41:24.350Z,987.69
2022-12-31T08:42:24.358Z,987.62
2022-12-31T08:43:24.347Z,987.73
2022-12-31T08:44:24.321Z,987.59
2022-12-31T08:45:24.344Z,987.71
2022-12-31T08:46:24.289Z,987.75
2022-12-31T08:47:24.307Z,987.75
2022-12-31T08:48:24.265Z,987.69
2022-12-31T08:49:24.254Z,987.75
2022-12-31T08:50:24.260Z,987.63
2022-12-31T08:51:24.237Z,987.61
2022-12-31T08:52:24.228Z,987.59
2022-12-31T08:53:24.233Z,987.68
2022-12-31T08:54:24.200Z,987.62
2022-12-31T08:55:24.210Z,987.78
2022-12-31T08:56:24.177Z,987.84
2022-12-31T08:57:24.169Z,987.76
2022-12-31T08:58:24.158Z,987.89
2022-12-31T08:59:24.165Z,987.91
2022-12-31T09:00:24.145Z,987.96
2022-12-31T09:01:24.179Z,987.78
2022-12-31T09:02:24.122Z,987.94
2022-12-31T09:03:24.121Z,987.85
2022-12-31T09:04:24.249Z,987.87
2022-12-31T09:05:24.088Z,988.00
2022-12-31T09:06:24.072Z,987.89
2022-12-31T09:07:24.058Z,987.83
2022-12-31T09:08:24.054Z,987.90
2022-12-31T09:09:39.966Z,987.88
2022-12-31T09:10:24.038Z,987.86
2022-12-31T09:11:24.030Z,987.85
2022-12-31T09:12:24.036Z,987.92
2022-12-31T09:13:23.995Z,987.88
2022-12-31T09:14:23.995Z,987.94
2022-12-31T09:15:23.975Z,987.92
2022-12-31T09:16:24.002Z,987.89
2022-12-31T09:17:23.948Z,988.00
2022-12-31T09:18:27.119Z,987.93
2022-12-31T09:19:23.936Z,988.03
2022-12-31T09:20:23.922Z,987.95
2022-12-31T09:21:23.945Z,987.90
2022-12-31T09:22:23.915Z,987.95
2022-12-31T09:23:23.900Z,987.98
2022-12-31T09:24:23.880Z,987.94
2022-12-31T09:25:23.874Z,988.04
2022-12-31T09:26:24.430Z,988.05
2022-12-31T09:27:27.871Z,988.16
2022-12-31T09:28:23.836Z,988.42
2022-12-31T09:29:23.817Z,988.26
2022-12-31T09:30:23.809Z,988.16
2022-12-31T09:31:23.848Z,988.27
2022-12-31T09:32:23.791Z,988.31
2022-12-31T09:33:23.780Z,988.25
2022-12-31T09:34:23.762Z,988.38
2022-12-31T09:35:23.757Z,988.44
2022-12-31T09:36:23.740Z,988.41
2022-12-31T09:37:23.734Z,988.54
2022-12-31T09:38:23.740Z,988.47
2022-12-31T09:39:23.710Z,988.50
2022-12-31T09:40:23.716Z,988.67
2022-12-31T09:41:23.699Z,988.61
2022-12-31T09:42:23.698Z,988.54
2022-12-31T09:43:23.685Z,988.61
2022-12-31T09:44:23.647Z,988.51
2022-12-31T09:45:23.646Z,988.74
2022-12-31T09:46:23.630Z,988.76
2022-12-31T09:47:23.619Z,988.67
2022-12-31T09:48:23.623Z,988.69
2022-12-31T09:49:23.624Z,988.79
2022-12-31T09:50:23.588Z,988.92
2022-12-31T09:51:25.695Z,988.76
2022-12-31T09:52:23.577Z,988.70
2022-12-31T09:53:23.557Z,988.76
2022-12-31T09:54:23.549Z,988.78
2022-12-31T09:55:23.531Z,988.76
2022-12-31T09:56:23.534Z,988.82
2022-12-31T09:57:23.543Z,988.81
2022-12-31T09:58:23.512Z,988.72
2022-12-31T09:59:23.486Z,988.93
2022-12-31T10:00:23.485Z,988.78
2022-12-31T10:01:23.553Z,988.76
2022-12-31T10:02:23.688Z,988.72
2022-12-31T10:03:23.495Z,988.76
2022-12-31T10:04:23.509Z,988.97
2022-12-31T10:05:23.423Z,988.89
2022-12-31T10:06:23.418Z,988.85
2022-12-31T10:07:23.415Z,988.91
2022-12-31T10:08:23.382Z,988.89
2022-12-31T10:09:23.377Z,988.90
2022-12-31T10:10:23.420Z,988.91
2022-12-31T10:11:23.355Z,989.08
2022-12-31T10:12:23.344Z,989.03
2022-12-31T10:13:23.348Z,989.04
2022-12-31T10:14:23.322Z,989.03
2022-12-31T10:15:23.307Z,989.16
2022-12-31T10:16:23.360Z,988.92
2022-12-31T10:17:23.297Z,989.22
2022-12-31T10:18:23.282Z,989.03
2022-12-31T10:19:23.280Z,989.00
2022-12-31T10:20:23.276Z,989.01
2022-12-31T10:21:23.255Z,989.11
2022-12-31T10:22:23.248Z,989.14
2022-12-31T10:23:23.226Z,989.02
2022-12-31T10:24:23.215Z,989.00
2022-12-31T10:25:37.962Z,989.19
2022-12-31T10:26:23.209Z,989.05
2022-12-31T10:27:23.191Z,989.13
2022-12-31T10:28:23.213Z,989.16
2022-12-31T10:29:23.160Z,989.17
2022-12-31T10:30:23.147Z,989.19
2022-12-31T10:31:23.195Z,989.16
2022-12-31T10:32:29.433Z,989.08
2022-12-31T10:33:23.124Z,989.07
2022-12-31T10:34:23.104Z,989.03
2022-12-31T10:35:23.104Z,989.17
2022-12-31T10:36:23.111Z,989.14
2022-12-31T10:37:23.070Z,989.18
2022-12-31T10:38:23.055Z,989.20
2022-12-31T10:39:24.608Z,989.18
2022-12-31T10:40:23.059Z,989.13
2022-12-31T10:41:23.032Z,988.96
2022-12-31T10:42:23.066Z,989.18
2022-12-31T10:43:22.993Z,989.14
2022-12-31T10:44:22.997Z,989.14
2022-12-31T10:45:23.003Z,989.15
2022-12-31T10:46:23.538Z,989.22
2022-12-31T10:47:22.954Z,989.10
2022-12-31T10:48:22.954Z,989.07
2022-12-31T10:49:22.961Z,989.21
2022-12-31T10:50:22.913Z,989.23
2022-12-31T10:51:22.925Z,989.13
2022-12-31T10:52:22.903Z,989.12
2022-12-31T10:53:22.891Z,989.09
2022-12-31T10:54:22.874Z,989.14
2022-12-31T10:55:22.867Z,989.01
2022-12-31T10:56:22.877Z,989.10
2022-12-31T10:57:22.860Z,989.01
2022-12-31T10:58:22.833Z,989.08
2022-12-31T10:59:22.816Z,989.07
2022-12-31T11:00:22.820Z,989.15
2022-12-31T11:01:22.877Z,988.99
2022-12-31T11:02:22.993Z,989.05
2022-12-31T11:03:29.015Z,988.96
2022-12-31T11:04:22.792Z,989.01
2022-12-31T11:05:22.755Z,988.97
2022-12-31T11:06:22.740Z,989.08
2022-12-31T11:07:22.730Z,989.01
2022-12-31T11:08:22.719Z,989.09
2022-12-31T11:09:22.733Z,989.09
2022-12-31T11:10:22.722Z,989.01
2022-12-31T11:11:22.685Z,988.93
2022-12-31T11:12:22.672Z,988.88
2022-12-31T11:13:22.672Z,988.98
2022-12-31T11:14:22.668Z,988.79
2022-12-31T11:15:22.679Z,988.84
2022-12-31T11:16:22.757Z,988.86
2022-12-31T11:17:22.621Z,988.87
2022-12-31T11:18:22.611Z,988.87
2022-12-31T11:19:22.639Z,988.85
2022-12-31T11:20:22.601Z,989.09
2022-12-31T11:21:27.956Z,988.92
2022-12-31T11:22:22.585Z,988.99
2022-12-31T11:23:22.553Z,988.97
2022-12-31T11:24:22.545Z,988.92
2022-12-31T11:25:22.561Z,988.94
2022-12-31T11:26:22.531Z,988.94
2022-12-31T11:27:22.507Z,988.87
2022-12-31T11:28:22.500Z,988.86
2022-12-31T11:29:22.510Z,988.91
2022-12-31T11:30:22.489Z,988.93
2022-12-31T11:31:22.594Z,989.09
2022-12-31T11:32:22.456Z,989.03
2022-12-31T11:33:22.443Z,989.05
2022-12-31T11:34:22.429Z,989.09
2022-12-31T11:35:22.421Z,989.03
2022-12-31T11:36:22.410Z,988.98
2022-12-31T11:37:22.428Z,989.03
2022-12-31T11:38:22.398Z,988.94
2022-12-31T11:39:27.411Z,989.00
2022-12-31T11:40:22.391Z,988.93
2022-12-31T11:41:22.350Z,988.96
2022-12-31T11:42:22.353Z,988.95
2022-12-31T11:43:22.362Z,988.92
2022-12-31T11:44:22.321Z,988.93
2022-12-31T11:45:22.313Z,988.84
2022-12-31T11:46:22.444Z,988.98
2022-12-31T11:47:22.296Z,988.97
2022-12-31T11:48:31.242Z,989.03
2022-12-31T11:49:22.292Z,988.84
2022-12-31T11:50:22.255Z,988.91
2022-12-31T11:51:22.263Z,988.87
2022-12-31T11:52:22.231Z,988.89
2022-12-31T11:53:22.215Z,988.94
2022-12-31T11:54:22.230Z,988.92
2022-12-31T11:55:22.203Z,988.94
2022-12-31T11:56:22.211Z,988.76
2022-12-31T11:57:22.197Z,988.86
2022-12-31T11:58:22.170Z,988.95
2022-12-31T11:59:22.152Z,988.92
2022-12-31T12:00:22.153Z,988.86
2022-12-31T12:01:22.181Z,988.89
2022-12-31T12:02:22.164Z,988.91
2022-12-31T12:03:22.138Z,988.78
2022-12-31T12:04:22.112Z,989.01
2022-12-31T12:05:22.103Z,988.88
2022-12-31T12:06:22.089Z,988.95
2022-12-31T12:07:22.076Z,988.95
2022-12-31T12:08:22.067Z,988.94
2022-12-31T12:09:22.061Z,988.80
2022-12-31T12:10:22.338Z,988.72
2022-12-31T12:11:22.017Z,988.76
2022-12-31T12:12:22.034Z,988.93
2022-12-31T12:13:22.004Z,988.74
2022-12-31T12:14:22.006Z,988.83
2022-12-31T12:15:21.984Z,988.86
2022-12-31T12:16:21.979Z,989.03
2022-12-31T12:17:21.956Z,988.76
2022-12-31T12:18:21.984Z,989.12
2022-12-31T12:19:21.927Z,988.94
2022-12-31T12:20:21.942Z,988.90
2022-12-31T12:21:21.921Z,988.81
2022-12-31T12:22:21.908Z,988.93
2022-12-31T12:23:21.896Z,988.87
2022-12-31T12:24:21.908Z,988.84
2022-12-31T12:25:21.878Z,988.84
2022-12-31T12:26:21.866Z,988.87
2022-12-31T12:27:21.853Z,988.76
2022-12-31T12:28:21.845Z,988.76